sensor_id;sensor_type;location;lat;lon;timestamp;pressure;altitude;pressure_sealevel;temperature;humidity
5238;BME280;2639;49.700;7.962;2023-05-20T06:14:29;98996.28;;;12.95;88.92
5238;BME280;2639;49.700;7.962;2023-05-20T06:15:34;98993.94;;;12.98;88.51
5238;BME280;2639;49.700;7.962;2023-05-20T06:16:37;98996.94;;;13.04;88.40
5238;BME280;2639;49.700;7.962;2023-05-20T06:17:40;98996.59;;;13.11;88.52
5238;BME280;2639;49.700;7.962;2023-05-20T06:18:44;98996.22;;;13.18;87.50
5238;BME280;2639;49.700;7.962;2023-05-20T06:19:47;98993.16;;;13.24;86.86
5238;BME280;2639;49.700;7.962;2023-05-20T06:20:54;98999.16;;;13.36;87.21
5238;BME280;2639;49.700;7.962;2023-05-20T06:21:58;98992.84;;;13.44;87.38
5238;BME280;2639;49.700;7.962;2023-05-20T06:22:59;98990.78;;;13.52;85.89
5238;BME280;2639;49.700;7.962;2023-05-20T06:24:11;98985.81;;;13.55;85.63
5238;BME280;2639;49.700;7.962;2023-05-20T06:25:14;98997.97;;;13.70;85.03
5238;BME280;2639;49.700;7.962;2023-05-20T06:26:16;98989.72;;;13.75;84.72
5238;BME280;2639;49.700;7.962;2023-05-20T06:27:19;98997.97;;;13.83;83.90
5238;BME280;2639;49.700;7.962;2023-05-20T06:28:20;98989.44;;;13.84;83.79
5238;BME280;2639;49.700;7.962;2023-05-20T06:29:23;98994.19;;;13.78;82.96
5238;BME280;2639;49.700;7.962;2023-05-20T06:30:26;99000.53;;;13.70;83.51
5238;BME280;2639;49.700;7.962;2023-05-20T06:31:28;98996.97;;;13.67;84.22
5238;BME280;2639;49.700;7.962;2023-05-20T06:32:31;98988.84;;;13.75;84.45
5238;BME280;2639;49.700;7.962;2023-05-20T06:33:34;98996.38;;;13.85;83.74
5238;BME280;2639;49.700;7.962;2023-05-20T06:34:40;98994.97;;;13.90;83.03
5238;BME280;2639;49.700;7.962;2023-05-20T06:35:43;98992.81;;;13.96;82.76
5238;BME280;2639;49.700;7.962;2023-05-20T06:36:45;98991.72;;;14.06;83.64
5238;BME280;2639;49.700;7.962;2023-05-20T06:37:48;98993.91;;;14.13;83.16
5238;BME280;2639;49.700;7.962;2023-05-20T06:38:50;98987.03;;;14.27;82.86
5238;BME280;2639;49.700;7.962;2023-05-20T06:39:53;98990.78;;;14.45;82.43
5238;BME280;2639;49.700;7.962;2023-05-20T06:40:56;98982.47;;;14.63;81.74
5238;BME280;2639;49.700;7.962;2023-05-20T06:41:58;98972.38;;;14.81;80.88
5238;BME280;2639;49.700;7.962;2023-05-20T06:43:02;98971.03;;;14.87;79.95
5238;BME280;2639;49.700;7.962;2023-05-20T06:44:21;98971.00;;;15.01;79.82
5238;BME280;2639;49.700;7.962;2023-05-20T06:45:28;98966.91;;;15.04;79.04
5238;BME280;2639;49.700;7.962;2023-05-20T06:46:47;98967.41;;;14.99;78.23
5238;BME280;2639;49.700;7.962;2023-05-20T06:47:49;98975.38;;;15.02;79.38
5238;BME280;2639;49.700;7.962;2023-05-20T06:48:54;98966.19;;;15.07;79.25
5238;BME280;2639;49.700;7.962;2023-05-20T06:49:56;98963.97;;;15.13;79.73
5238;BME280;2639;49.700;7.962;2023-05-20T06:50:59;98971.53;;;15.10;79.25
5238;BME280;2639;49.700;7.962;2023-05-20T06:52:01;98974.31;;;15.13;78.82
5238;BME280;2639;49.700;7.962;2023-05-20T06:53:04;98967.91;;;15.21;79.22
5238;BME280;2639;49.700;7.962;2023-05-20T06:54:05;98970.88;;;15.27;79.13
5238;BME280;2639;49.700;7.962;2023-05-20T06:55:08;98972.66;;;15.28;79.79
5238;BME280;2639;49.700;7.962;2023-05-20T06:56:10;98978.38;;;15.38;80.50
5238;BME280;2639;49.700;7.962;2023-05-20T06:57:12;98969.78;;;15.39;78.44
5238;BME280;2639;49.700;7.962;2023-05-20T06:58:14;98975.34;;;15.45;78.28
5238;BME280;2639;49.700;7.962;2023-05-20T06:59:17;98978.03;;;15.46;78.81
5238;BME280;2639;49.700;7.962;2023-05-20T07:00:18;98974.84;;;15.50;78.41
5238;BME280;2639;49.700;7.962;2023-05-20T07:01:23;98974.72;;;15.49;78.09
5238;BME280;2639;49.700;7.962;2023-05-20T07:02:24;98975.50;;;15.48;79.46
5238;BME280;2639;49.700;7.962;2023-05-20T07:03:27;98978.75;;;15.44;78.24
5238;BME280;2639;49.700;7.962;2023-05-20T07:04:29;98969.81;;;15.53;78.26
5238;BME280;2639;49.700;7.962;2023-05-20T07:05:31;98976.97;;;15.57;78.59
5238;BME280;2639;49.700;7.962;2023-05-20T07:06:33;98972.84;;;15.61;78.50
5238;BME280;2639;49.700;7.962;2023-05-20T07:07:37;98973.31;;;15.54;77.77
5238;BME280;2639;49.700;7.962;2023-05-20T07:08:38;98963.75;;;15.53;77.92
5238;BME280;2639;49.700;7.962;2023-05-20T07:09:41;98970.63;;;15.67;79.57
5238;BME280;2639;49.700;7.962;2023-05-20T07:10:44;98966.91;;;15.77;77.72
5238;BME280;2639;49.700;7.962;2023-05-20T07:11:50;98968.06;;;15.82;77.56
5238;BME280;2639;49.700;7.962;2023-05-20T07:12:51;98959.13;;;15.92;77.99
5238;BME280;2639;49.700;7.962;2023-05-20T07:13:54;98955.72;;;15.93;76.08
5238;BME280;2639;49.700;7.962;2023-05-20T07:14:57;98961.28;;;15.84;75.86
5238;BME280;2639;49.700;7.962;2023-05-20T07:16:00;98965.13;;;15.91;76.82
5238;BME280;2639;49.700;7.962;2023-05-20T07:17:04;98952.16;;;15.91;76.38
5238;BME280;2639;49.700;7.962;2023-05-20T07:18:07;98953.41;;;15.97;76.51
5238;BME280;2639;49.700;7.962;2023-05-20T07:19:08;98962.22;;;16.01;75.37
5238;BME280;2639;49.700;7.962;2023-05-20T07:20:11;98956.25;;;16.02;75.35
5238;BME280;2639;49.700;7.962;2023-05-20T07:21:13;98947.84;;;16.06;75.41
5238;BME280;2639;49.700;7.962;2023-05-20T07:22:25;98958.81;;;16.17;75.80
5238;BME280;2639;49.700;7.962;2023-05-20T07:23:36;98952.78;;;16.33;75.75
5238;BME280;2639;49.700;7.962;2023-05-20T07:24:39;98938.81;;;16.46;74.98
5238;BME280;2639;49.700;7.962;2023-05-20T07:25:41;98940.00;;;16.52;74.41
5238;BME280;2639;49.700;7.962;2023-05-20T07:26:43;98937.63;;;16.72;75.04
5238;BME280;2639;49.700;7.962;2023-05-20T07:27:46;98938.44;;;16.87;73.32
5238;BME280;2639;49.700;7.962;2023-05-20T07:28:50;98935.53;;;16.97;72.29
5238;BME280;2639;49.700;7.962;2023-05-20T07:29:52;98939.25;;;17.02;72.14
5238;BME280;2639;49.700;7.962;2023-05-20T07:30:55;98931.88;;;17.10;70.78
5238;BME280;2639;49.700;7.962;2023-05-20T07:32:01;98933.28;;;17.03;70.19
5238;BME280;2639;49.700;7.962;2023-05-20T07:33:05;98929.22;;;17.09;71.78
5238;BME280;2639;49.700;7.962;2023-05-20T07:34:07;98929.84;;;17.21;72.52
5238;BME280;2639;49.700;7.962;2023-05-20T07:35:11;98925.63;;;17.23;70.32
5238;BME280;2639;49.700;7.962;2023-05-20T07:36:13;98929.56;;;17.33;71.17
5238;BME280;2639;49.700;7.962;2023-05-20T07:37:19;98926.03;;;17.49;69.95
5238;BME280;2639;49.700;7.962;2023-05-20T07:38:21;98926.81;;;17.64;69.29
5238;BME280;2639;49.700;7.962;2023-05-20T07:39:30;98923.09;;;17.77;69.69
5238;BME280;2639;49.700;7.962;2023-05-20T07:40:33;98921.06;;;17.87;68.26
5238;BME280;2639;49.700;7.962;2023-05-20T07:41:35;98929.16;;;17.94;68.12
5238;BME280;2639;49.700;7.962;2023-05-20T07:42:38;98920.19;;;17.87;67.17
5238;BME280;2639;49.700;7.962;2023-05-20T07:43:40;98931.28;;;17.84;68.36
5238;BME280;2639;49.700;7.962;2023-05-20T07:44:42;98925.97;;;17.81;67.71
5238;BME280;2639;49.700;7.962;2023-05-20T07:45:45;98929.53;;;17.83;68.25
5238;BME280;2639;49.700;7.962;2023-05-20T07:46:48;98926.09;;;17.84;68.05
5238;BME280;2639;49.700;7.962;2023-05-20T07:47:49;98930.50;;;17.85;68.84
5238;BME280;2639;49.700;7.962;2023-05-20T07:48:53;98933.75;;;17.81;68.99
5238;BME280;2639;49.700;7.962;2023-05-20T07:49:55;98922.38;;;17.79;68.55
5238;BME280;2639;49.700;7.962;2023-05-20T07:50:58;98928.56;;;17.81;68.44
5238;BME280;2639;49.700;7.962;2023-05-20T07:52:00;98924.25;;;17.82;68.66
5238;BME280;2639;49.700;7.962;2023-05-20T07:53:04;98926.09;;;17.84;68.47
5238;BME280;2639;49.700;7.962;2023-05-20T07:54:07;98922.28;;;17.94;67.94
5238;BME280;2639;49.700;7.962;2023-05-20T07:55:10;98926.56;;;17.94;67.87
5238;BME280;2639;49.700;7.962;2023-05-20T07:56:15;98929.09;;;17.92;68.14
5238;BME280;2639;49.700;7.962;2023-05-20T07:57:17;98927.75;;;17.82;67.13
5238;BME280;2639;49.700;7.962;2023-05-20T07:58:19;98925.47;;;17.72;68.40
5238;BME280;2639;49.700;7.962;2023-05-20T07:59:23;98920.16;;;17.69;68.55
5238;BME280;2639;49.700;7.962;2023-05-20T08:00:25;98918.66;;;17.74;69.07
5238;BME280;2639;49.700;7.962;2023-05-20T08:01:33;98923.19;;;17.78;69.09
5238;BME280;2639;49.700;7.962;2023-05-20T08:02:36;98925.97;;;17.81;69.07
5238;BME280;2639;49.700;7.962;2023-05-20T08:03:38;98923.72;;;17.89;68.45
5238;BME280;2639;49.700;7.962;2023-05-20T08:04:46;98934.88;;;17.86;67.83
5238;BME280;2639;49.700;7.962;2023-05-20T08:05:48;98937.47;;;17.86;67.53
5238;BME280;2639;49.700;7.962;2023-05-20T08:06:51;98928.69;;;17.66;67.18
5238;BME280;2639;49.700;7.962;2023-05-20T08:08:00;98934.81;;;17.51;68.47
5238;BME280;2639;49.700;7.962;2023-05-20T08:09:10;98928.31;;;17.42;69.38
5238;BME280;2639;49.700;7.962;2023-05-20T08:10:18;98927.34;;;17.40;69.71
5238;BME280;2639;49.700;7.962;2023-05-20T08:11:20;98934.34;;;17.41;69.59
5238;BME280;2639;49.700;7.962;2023-05-20T08:12:23;98938.88;;;17.45;69.98
5238;BME280;2639;49.700;7.962;2023-05-20T08:13:25;98932.88;;;17.46;68.80
5238;BME280;2639;49.700;7.962;2023-05-20T08:14:29;98931.59;;;17.38;70.01
5238;BME280;2639;49.700;7.962;2023-05-20T08:15:31;98929.66;;;17.34;70.20
5238;BME280;2639;49.700;7.962;2023-05-20T08:16:35;98937.13;;;17.28;70.16
5238;BME280;2639;49.700;7.962;2023-05-20T08:17:37;98933.88;;;17.32;70.56
5238;BME280;2639;49.700;7.962;2023-05-20T08:18:40;98938.72;;;17.08;70.71
5238;BME280;2639;49.700;7.962;2023-05-20T08:19:42;98930.50;;;17.00;70.68
5238;BME280;2639;49.700;7.962;2023-05-20T08:20:49;98929.94;;;17.06;70.48
5238;BME280;2639;49.700;7.962;2023-05-20T08:21:51;98928.09;;;17.03;69.45
5238;BME280;2639;49.700;7.962;2023-05-20T08:22:54;98927.13;;;17.01;70.46
5238;BME280;2639;49.700;7.962;2023-05-20T08:23:57;98922.06;;;17.04;71.15
5238;BME280;2639;49.700;7.962;2023-05-20T08:25:00;98923.06;;;17.07;71.54
5238;BME280;2639;49.700;7.962;2023-05-20T08:26:02;98926.13;;;17.16;71.07
5238;BME280;2639;49.700;7.962;2023-05-20T08:27:06;98929.56;;;17.33;72.72
5238;BME280;2639;49.700;7.962;2023-05-20T08:28:09;98926.22;;;17.35;69.60
5238;BME280;2639;49.700;7.962;2023-05-20T08:29:12;98922.34;;;17.43;70.63
5238;BME280;2639;49.700;7.962;2023-05-20T08:30:14;98919.38;;;17.54;69.65
5238;BME280;2639;49.700;7.962;2023-05-20T08:31:16;98913.16;;;17.68;69.51
5238;BME280;2639;49.700;7.962;2023-05-20T08:32:19;98918.84;;;17.95;69.47
5238;BME280;2639;49.700;7.962;2023-05-20T08:33:21;98918.97;;;18.16;69.30
5238;BME280;2639;49.700;7.962;2023-05-20T08:34:23;98909.16;;;18.28;67.44
5238;BME280;2639;49.700;7.962;2023-05-20T08:35:25;98911.63;;;18.45;67.49
5238;BME280;2639;49.700;7.962;2023-05-20T08:36:30;98903.16;;;18.49;66.44
5238;BME280;2639;49.700;7.962;2023-05-20T08:37:33;98906.84;;;18.54;66.67
5238;BME280;2639;49.700;7.962;2023-05-20T08:38:35;98910.16;;;18.50;66.86
5238;BME280;2639;49.700;7.962;2023-05-20T08:39:37;98911.50;;;18.42;67.05
5238;BME280;2639;49.700;7.962;2023-05-20T08:40:40;98921.47;;;18.33;67.12
5238;BME280;2639;49.700;7.962;2023-05-20T08:41:45;98919.72;;;18.32;67.16
5238;BME280;2639;49.700;7.962;2023-05-20T08:42:50;98912.88;;;18.34;66.72
5238;BME280;2639;49.700;7.962;2023-05-20T08:43:54;98932.19;;;18.21;66.37
5238;BME280;2639;49.700;7.962;2023-05-20T08:44:56;98902.63;;;18.01;66.95
5238;BME280;2639;49.700;7.962;2023-05-20T08:46:02;98920.78;;;17.99;68.49
5238;BME280;2639;49.700;7.962;2023-05-20T08:47:09;98915.22;;;17.92;67.24
5238;BME280;2639;49.700;7.962;2023-05-20T08:48:12;98910.09;;;17.93;68.35
5238;BME280;2639;49.700;7.962;2023-05-20T08:49:13;98914.69;;;17.99;69.12
5238;BME280;2639;49.700;7.962;2023-05-20T08:50:16;98911.56;;;18.06;68.09
5238;BME280;2639;49.700;7.962;2023-05-20T08:51:20;98915.94;;;18.07;67.58
5238;BME280;2639;49.700;7.962;2023-05-20T08:52:25;98917.03;;;18.12;67.22
5238;BME280;2639;49.700;7.962;2023-05-20T08:53:28;98918.84;;;18.13;67.31
5238;BME280;2639;49.700;7.962;2023-05-20T08:54:41;98918.09;;;18.16;67.34
5238;BME280;2639;49.700;7.962;2023-05-20T08:55:46;98914.06;;;18.22;66.79
5238;BME280;2639;49.700;7.962;2023-05-20T08:56:49;98909.84;;;18.24;67.33
5238;BME280;2639;49.700;7.962;2023-05-20T08:57:54;98911.53;;;18.24;67.10
5238;BME280;2639;49.700;7.962;2023-05-20T08:58:57;98907.38;;;18.27;68.23
5238;BME280;2639;49.700;7.962;2023-05-20T08:59:59;98916.16;;;18.29;67.21
5238;BME280;2639;49.700;7.962;2023-05-20T09:01:01;98918.63;;;18.46;67.36
5238;BME280;2639;49.700;7.962;2023-05-20T09:02:05;98917.56;;;18.60;67.00
5238;BME280;2639;49.700;7.962;2023-05-20T09:03:07;98919.78;;;18.70;66.36
5238;BME280;2639;49.700;7.962;2023-05-20T09:04:10;98919.25;;;18.78;65.53
5238;BME280;2639;49.700;7.962;2023-05-20T09:05:12;98921.78;;;18.58;66.23
5238;BME280;2639;49.700;7.962;2023-05-20T09:06:15;98923.22;;;18.51;66.35
5238;BME280;2639;49.700;7.962;2023-05-20T09:07:26;98923.53;;;18.40;66.14
5238;BME280;2639;49.700;7.962;2023-05-20T09:08:29;98925.34;;;18.41;67.03
5238;BME280;2639;49.700;7.962;2023-05-20T09:09:33;98932.44;;;18.45;66.97
5238;BME280;2639;49.700;7.962;2023-05-20T09:10:36;98932.50;;;18.27;65.72
5238;BME280;2639;49.700;7.962;2023-05-20T09:11:39;98912.97;;;18.17;66.68
5238;BME280;2639;49.700;7.962;2023-05-20T09:12:41;98916.94;;;18.28;67.67
5238;BME280;2639;49.700;7.962;2023-05-20T09:13:44;98918.63;;;18.46;67.26
5238;BME280;2639;49.700;7.962;2023-05-20T09:14:46;98919.84;;;18.54;67.92
5238;BME280;2639;49.700;7.962;2023-05-20T09:15:49;98910.09;;;18.68;67.83
5238;BME280;2639;49.700;7.962;2023-05-20T09:16:50;98914.97;;;18.80;66.16
5238;BME280;2639;49.700;7.962;2023-05-20T09:17:53;98912.13;;;18.93;67.48
5238;BME280;2639;49.700;7.962;2023-05-20T09:18:55;98903.63;;;18.97;64.32
5238;BME280;2639;49.700;7.962;2023-05-20T09:19:57;98898.94;;;19.09;64.45
5238;BME280;2639;49.700;7.962;2023-05-20T09:21:04;98909.22;;;19.06;65.75
5238;BME280;2639;49.700;7.962;2023-05-20T09:22:07;98899.78;;;18.89;64.89
5238;BME280;2639;49.700;7.962;2023-05-20T09:23:10;98909.38;;;18.90;65.58
5238;BME280;2639;49.700;7.962;2023-05-20T09:24:12;98908.06;;;19.00;64.79
5238;BME280;2639;49.700;7.962;2023-05-20T09:25:17;98907.59;;;19.08;66.57
5238;BME280;2639;49.700;7.962;2023-05-20T09:26:26;98908.13;;;19.21;65.48
5238;BME280;2639;49.700;7.962;2023-05-20T09:27:27;98906.72;;;19.08;64.07
5238;BME280;2639;49.700;7.962;2023-05-20T09:28:30;98902.09;;;19.22;64.68
5238;BME280;2639;49.700;7.962;2023-05-20T09:29:32;98892.56;;;19.22;64.21
5238;BME280;2639;49.700;7.962;2023-05-20T09:30:35;98906.22;;;19.38;65.37
5238;BME280;2639;49.700;7.962;2023-05-20T09:31:36;98900.59;;;19.48;65.04
5238;BME280;2639;49.700;7.962;2023-05-20T09:32:40;98894.63;;;19.50;63.06
5238;BME280;2639;49.700;7.962;2023-05-20T09:33:42;98897.34;;;19.53;63.48
5238;BME280;2639;49.700;7.962;2023-05-20T09:34:45;98893.19;;;19.38;63.69
5238;BME280;2639;49.700;7.962;2023-05-20T09:35:48;98900.00;;;19.34;64.11
5238;BME280;2639;49.700;7.962;2023-05-20T09:36:52;98897.41;;;19.34;64.66
5238;BME280;2639;49.700;7.962;2023-05-20T09:37:56;98888.81;;;19.16;63.56
5238;BME280;2639;49.700;7.962;2023-05-20T09:39:02;98893.13;;;19.15;65.64
5238;BME280;2639;49.700;7.962;2023-05-20T09:40:07;98893.75;;;19.09;65.54
5238;BME280;2639;49.700;7.962;2023-05-20T09:41:11;98904.59;;;18.99;64.75
5238;BME280;2639;49.700;7.962;2023-05-20T09:42:21;98900.50;;;18.85;64.30
5238;BME280;2639;49.700;7.962;2023-05-20T09:43:24;98897.28;;;18.72;65.39
5238;BME280;2639;49.700;7.962;2023-05-20T09:44:26;98896.66;;;18.77;65.13
5238;BME280;2639;49.700;7.962;2023-05-20T09:45:29;98892.09;;;18.72;65.83
5238;BME280;2639;49.700;7.962;2023-05-20T09:46:32;98888.38;;;18.85;65.95
5238;BME280;2639;49.700;7.962;2023-05-20T09:47:36;98891.25;;;18.91;66.16
5238;BME280;2639;49.700;7.962;2023-05-20T09:48:39;98892.25;;;18.95;65.95
5238;BME280;2639;49.700;7.962;2023-05-20T09:49:41;98891.69;;;19.02;67.17
5238;BME280;2639;49.700;7.962;2023-05-20T09:50:45;98892.28;;;19.16;67.25
5238;BME280;2639;49.700;7.962;2023-05-20T09:51:47;98880.72;;;19.29;66.28
5238;BME280;2639;49.700;7.962;2023-05-20T09:52:52;98887.94;;;19.36;64.77
5238;BME280;2639;49.700;7.962;2023-05-20T09:53:54;98891.50;;;19.38;65.16
5238;BME280;2639;49.700;7.962;2023-05-20T09:55:01;98894.50;;;19.26;65.31
5238;BME280;2639;49.700;7.962;2023-05-20T09:56:03;98897.81;;;19.24;65.58
5238;BME280;2639;49.700;7.962;2023-05-20T09:57:06;98890.66;;;19.18;64.94
5238;BME280;2639;49.700;7.962;2023-05-20T09:58:08;98891.59;;;19.20;66.56
5238;BME280;2639;49.700;7.962;2023-05-20T09:59:17;98906.16;;;18.96;65.22
5238;BME280;2639;49.700;7.962;2023-05-20T10:00:22;98890.75;;;18.81;65.54
5238;BME280;2639;49.700;7.962;2023-05-20T10:01:24;98899.09;;;18.74;66.96
5238;BME280;2639;49.700;7.962;2023-05-20T10:02:26;98900.84;;;18.75;66.38
5238;BME280;2639;49.700;7.962;2023-05-20T10:03:30;98891.41;;;18.57;66.87
5238;BME280;2639;49.700;7.962;2023-05-20T10:04:36;98899.06;;;18.54;68.39
5238;BME280;2639;49.700;7.962;2023-05-20T10:05:41;98899.88;;;18.53;67.18
5238;BME280;2639;49.700;7.962;2023-05-20T10:06:57;98895.56;;;18.54;67.42
5238;BME280;2639;49.700;7.962;2023-05-20T10:08:21;98896.41;;;18.72;68.26
5238;BME280;2639;49.700;7.962;2023-05-20T10:09:41;98891.28;;;18.74;66.92
5238;BME280;2639;49.700;7.962;2023-05-20T10:10:49;98893.38;;;18.81;67.38
5238;BME280;2639;49.700;7.962;2023-05-20T10:11:59;98888.38;;;18.85;66.28
5238;BME280;2639;49.700;7.962;2023-05-20T10:13:13;98892.13;;;18.92;67.27
5238;BME280;2639;49.700;7.962;2023-05-20T10:14:27;98888.00;;;18.97;66.84
5238;BME280;2639;49.700;7.962;2023-05-20T10:15:40;98889.66;;;18.95;66.05
5238;BME280;2639;49.700;7.962;2023-05-20T10:16:55;98890.75;;;19.00;68.09
5238;BME280;2639;49.700;7.962;2023-05-20T10:18:20;98886.50;;;19.02;65.41
5238;BME280;2639;49.700;7.962;2023-05-20T10:19:29;98882.53;;;19.10;66.34
5238;BME280;2639;49.700;7.962;2023-05-20T10:20:31;98874.06;;;19.16;66.30
5238;BME280;2639;49.700;7.962;2023-05-20T10:21:34;98877.13;;;19.27;66.18
5238;BME280;2639;49.700;7.962;2023-05-20T10:22:37;98878.28;;;19.33;67.51
5238;BME280;2639;49.700;7.962;2023-05-20T10:23:41;98876.69;;;19.37;66.41
5238;BME280;2639;49.700;7.962;2023-05-20T10:24:44;98876.84;;;19.40;65.42
5238;BME280;2639;49.700;7.962;2023-05-20T10:25:51;98873.31;;;19.40;64.46
5238;BME280;2639;49.700;7.962;2023-05-20T10:26:54;98879.69;;;19.46;64.56
5238;BME280;2639;49.700;7.962;2023-05-20T10:28:03;98873.41;;;19.41;64.60
5238;BME280;2639;49.700;7.962;2023-05-20T10:29:14;98875.34;;;19.47;64.42
5238;BME280;2639;49.700;7.962;2023-05-20T10:30:17;98866.44;;;19.40;65.33
5238;BME280;2639;49.700;7.962;2023-05-20T10:31:21;98873.69;;;19.28;65.53
5238;BME280;2639;49.700;7.962;2023-05-20T10:32:25;98876.25;;;19.26;66.31
5238;BME280;2639;49.700;7.962;2023-05-20T10:33:28;98873.97;;;19.34;65.38
5238;BME280;2639;49.700;7.962;2023-05-20T10:34:44;98869.56;;;19.33;64.86
5238;BME280;2639;49.700;7.962;2023-05-20T10:35:48;98868.66;;;19.31;65.37
5238;BME280;2639;49.700;7.962;2023-05-20T10:36:57;98868.66;;;19.31;64.91
5238;BME280;2639;49.700;7.962;2023-05-20T10:38:06;98874.25;;;19.40;65.83
5238;BME280;2639;49.700;7.962;2023-05-20T10:39:14;98866.53;;;19.43;65.12
5238;BME280;2639;49.700;7.962;2023-05-20T10:40:19;98863.16;;;19.46;65.79
5238;BME280;2639;49.700;7.962;2023-05-20T10:41:23;98864.94;;;19.47;65.42
5238;BME280;2639;49.700;7.962;2023-05-20T10:42:27;98861.75;;;19.54;65.31
5238;BME280;2639;49.700;7.962;2023-05-20T10:43:29;98861.03;;;19.57;65.56
5238;BME280;2639;49.700;7.962;2023-05-20T10:44:43;98855.81;;;19.57;65.32
5238;BME280;2639;49.700;7.962;2023-05-20T10:45:47;98865.28;;;19.54;65.02
5238;BME280;2639;49.700;7.962;2023-05-20T10:47:01;98858.97;;;19.49;65.08
5238;BME280;2639;49.700;7.962;2023-05-20T10:48:24;98853.00;;;19.52;65.85
5238;BME280;2639;49.700;7.962;2023-05-20T10:49:32;98841.09;;;19.59;65.00
5238;BME280;2639;49.700;7.962;2023-05-20T10:50:36;98851.41;;;19.55;65.64
5238;BME280;2639;49.700;7.962;2023-05-20T10:51:40;98848.22;;;19.63;65.88
5238;BME280;2639;49.700;7.962;2023-05-20T10:52:42;98851.38;;;19.75;66.01
5238;BME280;2639;49.700;7.962;2023-05-20T10:53:45;98846.34;;;19.80;66.23
5238;BME280;2639;49.700;7.962;2023-05-20T10:54:54;98839.63;;;19.86;65.60
5238;BME280;2639;49.700;7.962;2023-05-20T10:55:57;98839.03;;;19.93;65.06
5238;BME280;2639;49.700;7.962;2023-05-20T10:57:08;98829.34;;;19.89;64.61
5238;BME280;2639;49.700;7.962;2023-05-20T10:58:10;98838.34;;;19.75;65.76
5238;BME280;2639;49.700;7.962;2023-05-20T10:59:12;98835.75;;;19.75;65.61
5238;BME280;2639;49.700;7.962;2023-05-20T11:00:15;98836.66;;;19.77;64.92
5238;BME280;2639;49.700;7.962;2023-05-20T11:01:17;98830.13;;;19.66;66.14
5238;BME280;2639;49.700;7.962;2023-05-20T11:02:20;98836.38;;;19.69;66.42
5238;BME280;2639;49.700;7.962;2023-05-20T11:03:28;98834.19;;;19.80;65.90
5238;BME280;2639;49.700;7.962;2023-05-20T11:04:31;98829.22;;;19.86;65.11
5238;BME280;2639;49.700;7.962;2023-05-20T11:05:33;98841.03;;;19.99;65.00
5238;BME280;2639;49.700;7.962;2023-05-20T11:06:36;98823.53;;;20.19;65.64
5238;BME280;2639;49.700;7.962;2023-05-20T11:07:38;98827.28;;;20.50;64.94
5238;BME280;2639;49.700;7.962;2023-05-20T11:08:42;98820.81;;;20.63;63.78
5238;BME280;2639;49.700;7.962;2023-05-20T11:09:48;98827.22;;;20.72;63.48
5238;BME280;2639;49.700;7.962;2023-05-20T11:10:51;98827.69;;;20.85;63.07
5238;BME280;2639;49.700;7.962;2023-05-20T11:11:53;98816.09;;;21.02;62.44
5238;BME280;2639;49.700;7.962;2023-05-20T11:12:57;98824.53;;;21.19;63.56
5238;BME280;2639;49.700;7.962;2023-05-20T11:13:59;98810.56;;;21.44;63.62
5238;BME280;2639;49.700;7.962;2023-05-20T11:15:02;98808.44;;;21.59;61.17
5238;BME280;2639;49.700;7.962;2023-05-20T11:16:04;98811.66;;;21.78;61.18
5238;BME280;2639;49.700;7.962;2023-05-20T11:17:07;98806.13;;;21.97;60.75
5238;BME280;2639;49.700;7.962;2023-05-20T11:18:10;98798.47;;;22.03;58.79
5238;BME280;2639;49.700;7.962;2023-05-20T11:19:13;98794.78;;;21.41;59.52
5238;BME280;2639;49.700;7.962;2023-05-20T11:20:16;98796.84;;;21.24;60.12
5238;BME280;2639;49.700;7.962;2023-05-20T11:21:18;98799.81;;;21.09;60.73
5238;BME280;2639;49.700;7.962;2023-05-20T11:22:20;98805.09;;;21.11;61.49
5238;BME280;2639;49.700;7.962;2023-05-20T11:23:24;98802.72;;;21.18;62.12
5238;BME280;2639;49.700;7.962;2023-05-20T11:24:27;98814.47;;;21.31;61.94
5238;BME280;2639;49.700;7.962;2023-05-20T11:25:31;98811.50;;;21.20;61.07
5238;BME280;2639;49.700;7.962;2023-05-20T11:26:33;98811.50;;;21.20;61.49
5238;BME280;2639;49.700;7.962;2023-05-20T11:27:41;98802.63;;;21.15;60.41
5238;BME280;2639;49.700;7.962;2023-05-20T11:28:44;98799.47;;;21.26;60.88
5238;BME280;2639;49.700;7.962;2023-05-20T11:29:48;98800.91;;;21.41;61.60
5238;BME280;2639;49.700;7.962;2023-05-20T11:30:51;98809.31;;;21.58;61.74
5238;BME280;2639;49.700;7.962;2023-05-20T11:31:54;98805.03;;;21.62;62.05
5238;BME280;2639;49.700;7.962;2023-05-20T11:32:57;98808.00;;;21.73;60.79
5238;BME280;2639;49.700;7.962;2023-05-20T11:34:00;98803.00;;;21.80;59.93
5238;BME280;2639;49.700;7.962;2023-05-20T11:35:03;98802.94;;;21.79;60.43
5238;BME280;2639;49.700;7.962;2023-05-20T11:36:08;98801.50;;;21.60;59.89
5238;BME280;2639;49.700;7.962;2023-05-20T11:37:28;98795.31;;;21.58;59.82
5238;BME280;2639;49.700;7.962;2023-05-20T11:38:31;98799.75;;;21.60;60.46
5238;BME280;2639;49.700;7.962;2023-05-20T11:39:32;98803.78;;;21.49;60.71
5238;BME280;2639;49.700;7.962;2023-05-20T11:40:35;98805.06;;;21.36;60.72
5238;BME280;2639;49.700;7.962;2023-05-20T11:41:51;98810.84;;;21.26;60.47
5238;BME280;2639;49.700;7.962;2023-05-20T11:42:57;98809.63;;;21.16;61.14
5238;BME280;2639;49.700;7.962;2023-05-20T11:44:00;98800.81;;;20.63;61.61
5238;BME280;2639;49.700;7.962;2023-05-20T11:45:03;98804.41;;;20.43;62.15
5238;BME280;2639;49.700;7.962;2023-05-20T11:46:05;98807.56;;;20.10;63.16
5238;BME280;2639;49.700;7.962;2023-05-20T11:47:07;98807.31;;;20.04;64.13
5238;BME280;2639;49.700;7.962;2023-05-20T11:48:10;98798.88;;;20.11;63.80
5238;BME280;2639;49.700;7.962;2023-05-20T11:49:13;98799.69;;;20.32;62.85
5238;BME280;2639;49.700;7.962;2023-05-20T11:50:16;98792.69;;;20.55;63.37
5238;BME280;2639;49.700;7.962;2023-05-20T11:51:22;98792.72;;;20.79;63.44
5238;BME280;2639;49.700;7.962;2023-05-20T11:52:27;98800.13;;;20.93;62.99
5238;BME280;2639;49.700;7.962;2023-05-20T11:53:29;98795.38;;;20.81;62.56
5238;BME280;2639;49.700;7.962;2023-05-20T11:54:34;98796.16;;;20.78;61.82
5238;BME280;2639;49.700;7.962;2023-05-20T11:55:44;98799.16;;;20.89;62.28
5238;BME280;2639;49.700;7.962;2023-05-20T11:56:47;98800.56;;;21.05;62.50
5238;BME280;2639;49.700;7.962;2023-05-20T11:57:49;98793.75;;;21.10;61.56
5238;BME280;2639;49.700;7.962;2023-05-20T11:58:52;98790.72;;;21.23;61.23
5238;BME280;2639;49.700;7.962;2023-05-20T11:59:56;98790.59;;;21.20;61.25
5238;BME280;2639;49.700;7.962;2023-05-20T12:00:57;98790.81;;;21.27;60.58
5238;BME280;2639;49.700;7.962;2023-05-20T12:02:22;98786.00;;;21.39;60.90
5238;BME280;2639;49.700;7.962;2023-05-20T12:03:25;98792.13;;;21.67;61.95
5238;BME280;2639;49.700;7.962;2023-05-20T12:04:27;98786.72;;;21.89;60.51